createdAt,value
2023-07-04T00:01:13.255Z,99.90
2023-07-04T00:03:42.373Z,99.90
2023-07-04T00:06:14.216Z,99.90
2023-07-04T00:08:41.627Z,99.90
2023-07-04T00:11:09.825Z,99.90
2023-07-04T00:13:38.774Z,99.90
2023-07-04T00:16:11.211Z,99.90
2023-07-04T00:18:38.925Z,99.90
2023-07-04T00:21:13.547Z,99.90
2023-07-04T00:23:43.804Z,99.90
2023-07-04T00:26:11.060Z,99.90
2023-07-04T00:28:42.449Z,99.90
2023-07-04T00:31:12.715Z,99.90
2023-07-04T00:33:41.072Z,99.90
2023-07-04T00:36:11.190Z,99.90
2023-07-04T00:38:41.174Z,99.90
2023-07-04T00:41:23.044Z,99.90
2023-07-04T00:44:08.957Z,99.90
2023-07-04T00:46:41.486Z,99.90
2023-07-04T00:49:32.110Z,99.90
2023-07-04T00:52:13.695Z,99.90
2023-07-04T00:54:45.402Z,99.90
2023-07-04T00:57:14.677Z,99.90
2023-07-04T00:59:45.299Z,99.90
2023-07-04T01:02:17.596Z,99.90
2023-07-04T01:04:46.514Z,99.90
2023-07-04T01:07:17.051Z,99.90
2023-07-04T01:09:52.081Z,99.90
2023-07-04T01:12:19.810Z,99.90
2023-07-04T01:14:49.445Z,99.90
2023-07-04T01:17:16.730Z,99.90
2023-07-04T01:19:43.902Z,99.90
2023-07-04T01:22:35.811Z,99.90
2023-07-04T01:25:35.705Z,99.90
2023-07-04T01:28:04.583Z,99.90
2023-07-04T01:30:38.783Z,99.90
2023-07-04T01:33:07.271Z,99.90
2023-07-04T01:35:37.352Z,99.90
2023-07-04T01:38:07.452Z,99.90
2023-07-04T01:40:35.959Z,99.90
2023-07-04T01:43:04.960Z,99.90
2023-07-04T01:45:32.382Z,99.90
2023-07-04T01:47:59.662Z,99.90
2023-07-04T01:50:27.348Z,99.90
2023-07-04T01:52:54.468Z,99.90
2023-07-04T01:55:22.086Z,99.90
2023-07-04T01:57:49.428Z,99.90
2023-07-04T02:00:16.817Z,99.90
2023-07-04T02:02:44.788Z,99.90
2023-07-04T02:05:12.304Z,99.90
2023-07-04T02:07:39.663Z,99.90
2023-07-04T02:10:07.658Z,99.90
2023-07-04T02:12:34.837Z,99.90
2023-07-04T02:15:02.209Z,99.90
2023-07-04T02:17:30.479Z,99.90
2023-07-04T02:19:57.854Z,99.90
2023-07-04T02:22:25.203Z,99.90
2023-07-04T02:24:52.590Z,99.90
2023-07-04T02:27:19.872Z,99.90
2023-07-04T02:29:51.008Z,99.90
2023-07-04T02:32:18.438Z,99.90
2023-07-04T02:34:45.884Z,99.90
2023-07-04T02:37:13.029Z,99.90
2023-07-04T02:39:42.088Z,99.90
2023-07-04T02:42:09.452Z,99.90
2023-07-04T02:44:37.201Z,99.90
2023-07-04T02:47:04.794Z,99.90
2023-07-04T02:49:31.961Z,99.90
2023-07-04T02:51:59.215Z,99.90
2023-07-04T02:54:26.585Z,99.90
2023-07-04T02:56:54.025Z,99.90
2023-07-04T02:59:21.378Z,99.90
2023-07-04T03:01:49.136Z,99.90
2023-07-04T03:04:16.590Z,99.90
2023-07-04T03:06:43.833Z,99.90
2023-07-04T03:09:11.095Z,99.90
2023-07-04T03:11:38.567Z,99.90
2023-07-04T03:14:05.928Z,99.90
2023-07-04T03:16:33.017Z,99.90
2023-07-04T03:19:00.209Z,99.90
2023-07-04T03:21:27.393Z,99.90
2023-07-04T03:23:54.529Z,99.90
2023-07-04T03:26:21.811Z,99.90
2023-07-04T03:28:49.101Z,99.90
2023-07-04T03:31:16.312Z,99.90
2023-07-04T03:33:43.679Z,99.90
2023-07-04T03:36:11.053Z,99.90
2023-07-04T03:38:38.370Z,99.90
2023-07-04T03:41:05.524Z,99.90
2023-07-04T03:43:32.832Z,99.90
2023-07-04T03:45:59.932Z,99.90
2023-07-04T03:48:27.413Z,99.90
2023-07-04T03:50:54.984Z,99.90
2023-07-04T03:53:22.324Z,99.90
2023-07-04T03:55:53.327Z,99.90
2023-07-04T03:58:20.621Z,99.90
2023-07-04T04:00:48.971Z,99.90
2023-07-04T04:03:16.560Z,99.90
2023-07-04T04:05:44.456Z,99.90
2023-07-04T04:08:11.794Z,99.90
2023-07-04T04:10:41.434Z,99.90
2023-07-04T04:13:08.744Z,99.90
2023-07-04T04:15:36.079Z,99.90
2023-07-04T04:18:04.026Z,99.90
2023-07-04T04:20:31.353Z,99.90
2023-07-04T04:22:58.643Z,99.90
2023-07-04T04:25:25.923Z,99.90
2023-07-04T04:27:53.147Z,99.90
2023-07-04T04:30:20.380Z,99.90
2023-07-04T04:32:47.829Z,99.90
2023-07-04T04:35:16.438Z,99.90
2023-07-04T04:37:43.695Z,99.90
2023-07-04T04:40:11.548Z,99.90
2023-07-04T04:42:38.879Z,99.90
2023-07-04T04:45:09.301Z,99.90
2023-07-04T04:47:37.479Z,99.90
2023-07-04T04:50:05.128Z,99.90
2023-07-04T04:52:32.926Z,99.90
2023-07-04T04:55:03.832Z,99.90
2023-07-04T04:57:31.411Z,99.90
2023-07-04T05:00:01.181Z,99.90
2023-07-04T05:02:31.707Z,99.90
2023-07-04T05:05:02.355Z,99.90
2023-07-04T05:07:30.670Z,99.90
2023-07-04T05:10:02.152Z,99.90
2023-07-04T05:12:29.845Z,99.90
2023-07-04T05:14:57.467Z,99.90
2023-07-04T05:17:25.841Z,99.90
2023-07-04T05:19:53.557Z,99.90
2023-07-04T05:22:23.421Z,99.90
2023-07-04T05:24:50.874Z,99.90
2023-07-04T05:27:18.068Z,99.90
2023-07-04T05:29:49.597Z,99.90
2023-07-04T05:32:17.018Z,99.90
2023-07-04T05:34:48.928Z,99.90
2023-07-04T05:37:17.428Z,99.90
2023-07-04T05:39:46.419Z,99.90
2023-07-04T05:42:13.772Z,99.90
2023-07-04T05:44:41.024Z,99.90
2023-07-04T05:47:08.417Z,99.90
2023-07-04T05:49:35.827Z,99.90
2023-07-04T05:52:03.280Z,99.90
2023-07-04T05:54:30.489Z,99.90
2023-07-04T05:56:57.738Z,99.90
2023-07-04T05:59:25.190Z,99.90
2023-07-04T06:01:52.925Z,99.90
2023-07-04T06:04:23.434Z,99.90
2023-07-04T06:06:53.325Z,99.90
2023-07-04T06:09:21.867Z,99.90
2023-07-04T06:11:50.085Z,99.90
2023-07-04T06:14:28.026Z,99.90
2023-07-04T06:16:59.266Z,99.90
2023-07-04T06:19:27.072Z,99.90
2023-07-04T06:21:54.472Z,99.90
2023-07-04T06:24:22.303Z,99.90
2023-07-04T06:26:50.493Z,99.90
2023-07-04T06:29:17.747Z,99.90
2023-07-04T06:31:45.389Z,99.90
2023-07-04T06:34:13.598Z,99.90
2023-07-04T06:36:41.854Z,99.90
2023-07-04T06:39:09.330Z,99.90
2023-07-04T06:41:37.816Z,99.90
2023-07-04T06:44:06.284Z,99.90
2023-07-04T06:46:33.601Z,99.90
2023-07-04T06:49:00.834Z,99.90
2023-07-04T06:51:32.108Z,99.90
2023-07-04T06:53:59.451Z,99.90
2023-07-04T06:56:26.878Z,99.90
2023-07-04T06:58:56.118Z,99.90
2023-07-04T07:01:28.790Z,99.90
2023-07-04T07:03:57.792Z,99.90
2023-07-04T07:06:26.466Z,99.90
2023-07-04T07:08:54.281Z,99.90
2023-07-04T07:11:23.049Z,99.90
2023-07-04T07:13:52.030Z,99.90
2023-07-04T07:16:23.043Z,99.90
2023-07-04T07:18:52.163Z,99.90
2023-07-04T07:21:22.318Z,99.90
2023-07-04T07:26:23.363Z,99.90
2023-07-04T07:28:50.710Z,99.90
2023-07-04T07:31:21.023Z,99.90
2023-07-04T07:33:50.172Z,99.90
2023-07-04T07:36:24.130Z,99.90
2023-07-04T07:38:53.362Z,99.90
2023-07-04T07:41:26.577Z,99.90
2023-07-04T07:43:53.741Z,99.90
2023-07-04T07:46:21.016Z,99.90
2023-07-04T07:48:49.491Z,99.90
2023-07-04T07:51:17.655Z,99.90
2023-07-04T07:53:46.819Z,99.90
2023-07-04T07:56:16.312Z,99.90
2023-07-04T07:58:44.002Z,99.90
2023-07-04T08:01:13.354Z,99.90
2023-07-04T08:03:41.639Z,99.90
2023-07-04T08:06:10.630Z,99.90
2023-07-04T08:08:38.277Z,99.90
2023-07-04T08:11:05.711Z,99.90
2023-07-04T08:13:33.423Z,99.90
2023-07-04T08:16:00.771Z,99.90
2023-07-04T08:18:28.209Z,99.90
2023-07-04T08:21:03.694Z,99.90
2023-07-04T08:23:31.829Z,99.90
2023-07-04T08:25:59.363Z,99.90
2023-07-04T08:28:27.760Z,99.90
2023-07-04T08:31:03.165Z,99.90
2023-07-04T08:33:31.379Z,99.90
2023-07-04T08:36:04.481Z,99.90
2023-07-04T08:38:31.988Z,99.90
2023-07-04T08:40:59.869Z,99.90
2023-07-04T08:43:55.319Z,99.90
2023-07-04T08:46:23.109Z,99.90
2023-07-04T08:48:50.610Z,99.90
2023-07-04T08:51:25.493Z,99.90
2023-07-04T08:53:58.318Z,99.90
2023-07-04T08:56:35.604Z,99.90
2023-07-04T08:59:26.054Z,99.90
2023-07-04T09:02:18.138Z,99.90
2023-07-04T09:05:36.469Z,99.90
2023-07-04T09:08:20.750Z,99.90
2023-07-04T09:10:51.577Z,99.90
2023-07-04T09:13:28.999Z,99.90
2023-07-04T09:15:59.910Z,99.90
2023-07-04T09:18:50.510Z,99.90
2023-07-04T09:21:20.472Z,99.90
2023-07-04T09:23:49.645Z,99.90
2023-07-04T09:26:26.798Z,99.90
2023-07-04T09:28:55.961Z,99.90
2023-07-04T09:31:27.365Z,99.90
2023-07-04T09:33:55.556Z,99.90
2023-07-04T09:36:30.230Z,99.90
2023-07-04T09:38:59.693Z,99.90
2023-07-04T09:41:31.351Z,99.90
2023-07-04T09:44:20.713Z,99.90
2023-07-04T09:46:53.010Z,99.90
2023-07-04T09:49:28.984Z,99.90
2023-07-04T09:52:19.454Z,99.90
2023-07-04T09:55:06.368Z,99.90
2023-07-04T09:57:34.030Z,99.90
2023-07-04T10:00:17.332Z,99.90
2023-07-04T10:02:45.453Z,99.90
2023-07-04T10:05:22.700Z,99.90
2023-07-04T10:08:01.353Z,99.90
2023-07-04T10:10:50.898Z,99.90
2023-07-04T10:13:40.229Z,99.90
2023-07-04T10:16:24.429Z,99.90
2023-07-04T10:18:51.819Z,99.90
2023-07-04T10:21:20.278Z,99.90
2023-07-04T10:23:47.645Z,99.90
2023-07-04T10:26:17.166Z,99.90
2023-07-04T10:28:45.129Z,99.90
2023-07-04T10:31:17.609Z,99.90
2023-07-04T10:33:55.353Z,99.90
2023-07-04T10:36:29.426Z,99.90
2023-07-04T10:39:01.853Z,99.90
2023-07-04T10:41:41.573Z,99.90
2023-07-04T10:44:18.815Z,99.90
2023-07-04T10:46:50.486Z,99.90
2023-07-04T10:49:21.283Z,99.90
2023-07-04T10:51:53.284Z,99.90
2023-07-04T10:54:20.693Z,99.90
2023-07-04T10:56:53.225Z,99.90
2023-07-04T10:59:29.548Z,99.90
2023-07-04T11:02:11.123Z,99.90
2023-07-04T11:04:40.765Z,99.90
2023-07-04T11:07:22.556Z,99.90
2023-07-04T11:09:56.597Z,99.90
2023-07-04T11:12:28.593Z,99.90
2023-07-04T11:15:05.747Z,99.90
2023-07-04T11:17:36.344Z,99.90
2023-07-04T11:20:18.581Z,99.90
2023-07-04T11:23:03.347Z,99.90
2023-07-04T11:25:47.454Z,99.90
2023-07-04T11:28:39.975Z,99.90
2023-07-04T11:31:17.808Z,99.90
2023-07-04T11:34:05.206Z,99.90
2023-07-04T11:36:42.150Z,99.90
2023-07-04T11:39:40.029Z,99.90
2023-07-04T11:42:17.494Z,99.90
2023-07-04T11:44:58.124Z,99.90
2023-07-04T11:47:56.569Z,99.90
2023-07-04T11:50:44.780Z,99.90
2023-07-04T11:53:23.547Z,99.90
2023-07-04T11:56:14.098Z,99.90
2023-07-04T11:58:41.825Z,99.90
2023-07-04T12:01:09.974Z,99.90
2023-07-04T12:03:49.095Z,99.90
2023-07-04T12:06:51.830Z,99.90
2023-07-04T12:09:27.315Z,99.90
2023-07-04T12:11:57.098Z,99.90
2023-07-04T12:14:25.930Z,99.60
2023-07-04T12:16:53.665Z,99.40
2023-07-04T12:19:23.279Z,99.20
2023-07-04T12:21:52.253Z,98.90
2023-07-04T12:24:25.814Z,98.70
2023-07-04T12:27:00.686Z,98.50
2023-07-04T12:32:08.991Z,98.90
2023-07-04T12:37:07.685Z,99.50
2023-07-04T12:39:44.235Z,99.70
2023-07-04T12:42:16.599Z,99.40
2023-07-04T12:44:46.089Z,99.10
2023-07-04T12:47:20.593Z,98.90
2023-07-04T12:49:49.486Z,98.60
2023-07-04T12:52:17.679Z,98.50
2023-07-04T12:54:46.440Z,98.20
2023-07-04T12:57:16.750Z,98.00
2023-07-04T12:59:44.206Z,97.70
2023-07-04T13:02:24.046Z,97.50
2023-07-04T13:04:55.431Z,97.20
2023-07-04T13:07:24.497Z,97.40
2023-07-04T13:09:57.295Z,97.50
2023-07-04T13:12:29.546Z,97.50
2023-07-04T13:15:06.447Z,97.50
2023-07-04T13:17:34.221Z,97.70
2023-07-04T13:20:18.376Z,97.90
2023-07-04T13:24:58.010Z,97.70
2023-07-04T13:25:42.722Z,97.80
2023-07-04T13:33:35.723Z,97.90
2023-07-04T13:36:13.714Z,98.10
2023-07-04T13:41:13.094Z,98.70
2023-07-04T13:46:12.405Z,99.30
2023-07-04T13:48:39.495Z,99.60
2023-07-04T13:51:06.962Z,99.70
2023-07-04T13:53:34.288Z,99.90
2023-07-04T13:56:01.637Z,99.90
2023-07-04T13:58:29.099Z,99.90
2023-07-04T14:05:39.654Z,99.90
2023-07-04T14:06:15.292Z,99.90
2023-07-04T14:08:46.814Z,99.90
2023-07-04T14:11:20.198Z,99.90
2023-07-04T14:13:49.574Z,99.90
2023-07-04T14:16:40.862Z,99.90
2023-07-04T14:21:42.147Z,99.90
2023-07-04T14:24:09.391Z,99.90
2023-07-04T14:26:36.444Z,99.90
2023-07-04T14:29:03.619Z,99.90
2023-07-04T14:31:33.158Z,99.90
2023-07-04T14:34:00.508Z,99.90
2023-07-04T14:36:27.757Z,99.90
2023-07-04T14:38:54.931Z,99.90
2023-07-04T14:43:52.344Z,99.20
2023-07-04T14:46:19.645Z,98.80
2023-07-04T14:48:46.792Z,98.60
2023-07-04T14:51:14.985Z,98.60
2023-07-04T14:53:43.982Z,98.30
2023-07-04T14:56:14.412Z,98.20
2023-07-04T14:58:42.182Z,98.60
2023-07-04T15:01:16.202Z,98.30
2023-07-04T15:03:43.559Z,97.40
2023-07-04T15:06:10.696Z,97.10
2023-07-04T15:08:38.086Z,97.00
2023-07-04T15:11:06.191Z,97.00
2023-07-04T15:13:34.715Z,97.20
2023-07-04T15:16:05.155Z,97.20
2023-07-04T15:18:39.651Z,97.10
2023-07-04T15:21:09.695Z,96.90
2023-07-04T15:23:37.881Z,96.70
2023-07-04T15:26:20.162Z,96.50
2023-07-04T15:28:54.775Z,96.40
2023-07-04T15:31:22.793Z,96.30
2023-07-04T15:33:52.094Z,96.40
2023-07-04T15:36:20.209Z,96.60
2023-07-04T15:38:47.964Z,97.10
2023-07-04T15:41:15.490Z,97.60
2023-07-04T15:43:42.771Z,98.10
2023-07-04T15:46:14.641Z,98.80
2023-07-04T15:48:44.071Z,99.40
2023-07-04T15:51:14.862Z,99.60
2023-07-04T15:53:42.081Z,99.90
2023-07-04T15:56:15.465Z,99.90
2023-07-04T15:58:42.820Z,99.90
2023-07-04T16:01:11.152Z,99.90
2023-07-04T16:03:38.655Z,99.90
2023-07-04T16:06:09.029Z,99.90
2023-07-04T16:08:38.725Z,99.90
2023-07-04T16:11:08.127Z,99.90
2023-07-04T16:13:38.448Z,99.90
2023-07-04T16:16:05.921Z,99.90
2023-07-04T16:18:33.300Z,99.90
2023-07-04T16:21:00.675Z,99.90
2023-07-04T16:23:29.018Z,99.90
2023-07-04T16:25:58.600Z,99.90
2023-07-04T16:28:26.098Z,99.90
2023-07-04T16:30:58.403Z,99.70
2023-07-04T16:33:27.258Z,99.50
2023-07-04T16:35:55.389Z,99.50
2023-07-04T16:38:24.526Z,99.50
2023-07-04T16:40:54.820Z,99.60
2023-07-04T16:43:22.676Z,99.70
2023-07-04T16:45:50.105Z,99.50
2023-07-04T16:48:17.864Z,99.50
2023-07-04T16:50:45.251Z,99.50
2023-07-04T16:53:12.525Z,99.50
2023-07-04T16:55:40.023Z,99.50
2023-07-04T16:58:07.382Z,99.60
2023-07-04T17:00:35.233Z,99.60
2023-07-04T17:03:02.498Z,99.50
2023-07-04T17:05:29.894Z,99.60
2023-07-04T17:07:57.073Z,99.70
2023-07-04T17:10:24.421Z,99.80
2023-07-04T17:12:51.594Z,99.90
2023-07-04T17:15:19.176Z,99.90
2023-07-04T17:17:46.765Z,99.90
2023-07-04T17:20:14.565Z,99.90
2023-07-04T17:22:42.095Z,99.90
2023-07-04T17:25:14.388Z,99.90
2023-07-04T17:27:42.137Z,99.90
2023-07-04T17:30:10.482Z,99.90
2023-07-04T17:32:37.873Z,99.90
2023-07-04T17:35:06.291Z,99.90
2023-07-04T17:37:34.232Z,99.90
2023-07-04T17:40:04.598Z,99.90
2023-07-04T17:42:31.877Z,99.90
2023-07-04T17:44:59.739Z,99.90
2023-07-04T17:47:30.090Z,99.90
2023-07-04T17:49:57.518Z,99.90
2023-07-04T17:52:25.493Z,99.90
2023-07-04T17:54:52.755Z,99.90
2023-07-04T17:57:27.683Z,99.90
2023-07-04T17:59:56.863Z,99.90
2023-07-04T18:02:24.769Z,99.90
2023-07-04T18:04:55.895Z,99.90
2023-07-04T18:07:24.128Z,99.90
2023-07-04T18:09:52.528Z,99.90
2023-07-04T18:12:24.877Z,99.90
2023-07-04T18:14:54.315Z,99.90
2023-07-04T18:17:21.567Z,99.90
2023-07-04T18:19:52.071Z,99.90
2023-07-04T18:22:19.267Z,99.90
2023-07-04T18:24:47.952Z,99.90
2023-07-04T18:27:15.295Z,99.90
2023-07-04T18:29:43.673Z,99.90
2023-07-04T18:32:11.078Z,99.90
2023-07-04T18:34:39.444Z,99.90
2023-07-04T18:37:06.766Z,99.90
2023-07-04T18:39:34.060Z,99.90
2023-07-04T18:42:01.157Z,99.90
2023-07-04T18:44:28.649Z,99.90
2023-07-04T18:46:56.051Z,99.90
2023-07-04T18:49:26.132Z,99.90
2023-07-04T18:51:54.229Z,99.90
2023-07-04T18:54:21.618Z,99.90
2023-07-04T18:56:49.415Z,99.90
2023-07-04T18:59:17.487Z,99.90
2023-07-04T19:01:45.115Z,99.90
2023-07-04T19:04:12.666Z,99.90
2023-07-04T19:06:43.265Z,99.90
2023-07-04T19:09:11.508Z,99.90
2023-07-04T19:11:43.708Z,99.90
2023-07-04T19:14:12.206Z,99.90
2023-07-04T19:16:44.088Z,99.90
2023-07-04T19:19:11.622Z,99.90
2023-07-04T19:21:40.046Z,99.90
2023-07-04T19:24:07.898Z,99.90
2023-07-04T19:26:37.909Z,99.90
2023-07-04T19:29:06.389Z,99.90
2023-07-04T19:31:33.751Z,99.90
2023-07-04T19:34:00.963Z,99.90
2023-07-04T19:36:28.375Z,99.90
2023-07-04T19:38:55.541Z,99.90
2023-07-04T19:41:23.070Z,99.90
2023-07-04T19:43:51.136Z,99.90
2023-07-04T19:46:18.504Z,99.90
2023-07-04T19:48:45.624Z,99.90
2023-07-04T19:51:18.133Z,99.90
2023-07-04T19:53:45.589Z,99.90
2023-07-04T19:56:15.465Z,99.90
2023-07-04T19:58:42.760Z,99.90
2023-07-04T20:01:13.060Z,99.90
2023-07-04T20:03:42.082Z,99.90
2023-07-04T20:06:12.281Z,99.90
2023-07-04T20:08:41.799Z,99.90
2023-07-04T20:11:09.921Z,99.90
2023-07-04T20:13:38.250Z,99.90
2023-07-04T20:16:27.616Z,99.90
2023-07-04T20:18:57.532Z,99.90
2023-07-04T20:21:26.167Z,99.90
2023-07-04T20:23:53.501Z,99.90
2023-07-04T20:26:20.736Z,99.90
2023-07-04T20:28:48.219Z,99.90
2023-07-04T20:31:16.010Z,99.90
2023-07-04T20:33:43.544Z,99.90
2023-07-04T20:36:11.125Z,99.90
2023-07-04T20:38:38.348Z,99.90
2023-07-04T20:41:09.035Z,99.90
2023-07-04T20:43:36.892Z,99.90
2023-07-04T20:46:05.352Z,99.90
2023-07-04T20:48:32.683Z,99.90
2023-07-04T20:51:05.812Z,99.90
2023-07-04T20:53:33.559Z,99.90
2023-07-04T20:56:02.122Z,99.90
2023-07-04T20:58:32.044Z,99.90
2023-07-04T21:00:59.474Z,99.90
2023-07-04T21:03:27.791Z,99.90
2023-07-04T21:05:56.409Z,99.90
2023-07-04T21:08:28.529Z,99.90
2023-07-04T21:11:05.449Z,99.90
2023-07-04T21:13:34.369Z,99.90
2023-07-04T21:16:08.884Z,99.90
2023-07-04T21:18:36.821Z,99.90
2023-07-04T21:21:07.384Z,99.90
2023-07-04T21:23:36.620Z,99.90
2023-07-04T21:26:08.410Z,99.90
2023-07-04T21:28:36.621Z,99.90
2023-07-04T21:31:09.625Z,99.90
2023-07-04T21:33:37.869Z,99.90
2023-07-04T21:36:05.931Z,99.90
2023-07-04T21:38:38.647Z,99.90
2023-07-04T21:41:07.570Z,99.90
2023-07-04T21:43:34.916Z,99.90
2023-07-04T21:46:08.921Z,99.90
2023-07-04T21:48:36.698Z,99.90
2023-07-04T21:51:07.552Z,99.90
2023-07-04T21:53:35.368Z,99.90
2023-07-04T21:56:03.262Z,99.90
2023-07-04T21:58:32.410Z,99.90
2023-07-04T22:01:03.953Z,99.90
2023-07-04T22:03:39.026Z,99.90
2023-07-04T22:06:11.168Z,99.90
2023-07-04T22:08:40.147Z,99.90
2023-07-04T22:11:12.569Z,99.90
2023-07-04T22:13:45.096Z,99.90
2023-07-04T22:16:14.022Z,99.90
2023-07-04T22:18:41.404Z,99.90
2023-07-04T22:21:12.275Z,99.90
2023-07-04T22:23:40.439Z,99.90
2023-07-04T22:26:08.823Z,99.90
2023-07-04T22:28:37.076Z,99.90
2023-07-04T22:31:06.981Z,99.90
2023-07-04T22:33:34.433Z,99.90
2023-07-04T22:36:01.853Z,99.90
2023-07-04T22:38:29.021Z,99.90
2023-07-04T22:40:56.254Z,99.90
2023-07-04T22:43:23.743Z,99.90
2023-07-04T22:45:58.974Z,99.90
2023-07-04T22:48:27.304Z,99.90
2023-07-04T22:51:00.557Z,99.90
2023-07-04T22:53:28.238Z,99.90
2023-07-04T22:55:56.068Z,99.90
2023-07-04T22:58:23.429Z,99.90
2023-07-04T23:00:50.818Z,99.90
2023-07-04T23:03:18.159Z,99.90
2023-07-04T23:05:46.472Z,99.90
2023-07-04T23:08:14.550Z,99.90
2023-07-04T23:10:41.680Z,99.90
2023-07-04T23:13:08.857Z,99.90
2023-07-04T23:15:37.259Z,99.90
2023-07-04T23:18:04.731Z,99.90
2023-07-04T23:20:32.053Z,99.90
2023-07-04T23:22:59.266Z,99.90
2023-07-04T23:25:28.459Z,99.90
2023-07-04T23:27:55.653Z,99.90
2023-07-04T23:30:22.884Z,99.90
2023-07-04T23:32:50.211Z,99.90
2023-07-04T23:35:17.821Z,99.90
2023-07-04T23:37:44.964Z,99.90
2023-07-04T23:40:12.250Z,99.90
2023-07-04T23:42:39.493Z,99.90
2023-07-04T23:45:07.477Z,99.90
2023-07-04T23:47:34.782Z,99.90
2023-07-04T23:50:02.035Z,99.90
2023-07-04T23:52:29.388Z,99.90
2023-07-04T23:54:56.641Z,99.90
2023-07-04T23:57:23.813Z,99.90
2023-07-04T23:59:51.166Z,99.90
